Informes de METARS cercanos

 

LEAL - Alicante/El Alte, Spain
Distance from station: SSE 60km
Actualización: 13/12/2018 02:30
Despejado
Despejado
 Viento del OSO
Viento: OSO 15 km/h
Temperatura: 14°C
Rocío: 6°C
Humedad: 59%
Barómetro: 1014 hPa
Resumen: Despejado
Visibility: greater than 10 km
2018/12/13 01:30 LEAL 130130Z 24008KT 210V280 CAVOK 14/06 Q1014 NOSIG
LEVC - Valencia (civ/Mi, Spain
Distance from station: NNE 84km
Actualización: 13/12/2018 02:30
Few Clouds
Few Clouds
 Viento del O
Viento: O 30 km/h
Temperatura: 15°C
Rocío: 6°C
Humedad: 55%
Barómetro: 1013 hPa
Clouds: Few Clouds
Visibility: 10 km
Cloud details: Few Clouds 610 m
2018/12/13 01:30 LEVC 130130Z 28016KT 9999 FEW020 15/06 Q1013 NOSIG
 
LEAB - Albacete (civ/Mi, Spain
Distance from station: O 95km
Actualización: 13/12/2018 02:00
Parcialmente nuboso
Parcialmente nuboso
 Viento del ONO
Viento: ONO 13 km/h
Temperatura: 8°C
Wind Chill: 6°C
Rocío: 6°C
Humedad: 87%
Barómetro: 1017 hPa
Clouds: Parcialmente nuboso
Visibility: 10 km
Cloud details: Parcialmente nuboso 762 m
2018/12/13 01:00 LEAB 130100Z 29007KT 9999 SCT025 08/06 Q1017 NOSIG
LERI - Alcantarilla(Sp-, Spain
Distance from station: SSO 100km
Actualización: 12/12/2018 19:00
NOT Current
Despejado
Despejado
 Viento del SO
Viento: SO 7 km/h
Temperatura: 12°C
Rocío: 9°C
Humedad: 82%
Barómetro: 1018 hPa
Resumen: Despejado
Visibility: greater than 10 km
2018/12/12 18:00 LERI 121800Z 22004KT CAVOK 12/09 Q1018 NOSIG
 
LELC - San Javier(Mil/C, Spain
Distance from station: S 113km
Actualización: 13/12/2018 02:30
Despejado
Despejado
 Viento del O
Viento: O 11 km/h
Temperatura: 11°C
Rocío: 8°C
Humedad: 82%
Barómetro: 1015 hPa
Clouds: Despejado
Visibility: 10 km
2018/12/13 01:30 LELC 130130Z AUTO 27006KT 9999 NCD 11/08 Q1015
LEIB - Ibiza/Es Codola, Spain
Distance from station: E 186km
Actualización: 13/12/2018 02:30
Despejado
Despejado
 Viento del O
Viento: O 9 km/h
Temperatura: 14°C
Rocío: 10°C
Humedad: 77%
Barómetro: 1014 hPa
Resumen: Despejado
Visibility: greater than 10 km
2018/12/13 01:30 LEIB 130130Z AUTO 26005KT CAVOK 14/10 Q1014
 
LEAM - Almeria Airport, Spain
Distance from station: SSO 256km
Actualización: 13/12/2018 02:30

 Viento del NNO
Viento: NNO 11 km/h
Temperatura: 11°C
Rocío: 9°C
Humedad: 88%
Barómetro: 1015 hPa
Visibility: 10 km
2018/12/13 01:30 LEAM 130130Z AUTO 34006KT 9999 ////// 11/09 Q1015
LEMD - Madrid/Barajas, Spain
Distance from station: NO 305km
Actualización: 13/12/2018 02:30
Muy nuboso
Muy nuboso
 Viento del S
Viento: S 11 km/h
Temperatura: 8°C
Wind Chill: 6°C
Rocío: 8°C
Humedad: 100%
Barómetro: 1015 hPa
Clouds: Muy nuboso
Visibility: 7 km
Cloud details: Few Clouds 274 m
Muy nuboso 366 m
2018/12/13 01:30 LEMD 130130Z 17006KT 7000 FEW009 BKN012 08/08 Q1015 NOSIG
 
LEPA - Palma De Mallorc, Spain
Distance from station: ENE 313km
Actualización: 13/12/2018 02:30
Few Clouds
Few Clouds
 Viento del varies
Viento: varies 2 km/h
Temperatura: 9°C
Rocío: 8°C
Humedad: 94%
Barómetro: 1013 hPa
Clouds: Few Clouds
Visibility: 10 km
Cloud details: Few Clouds 549 m
2018/12/13 01:30 LEPA 130130Z VRB01KT 9999 FEW018 09/08 Q1013 NOSIG